createdAt,value
2019-05-05T00:00:35.237Z,71.43
2019-05-05T00:03:05.673Z,72.34
2019-05-05T00:05:36.719Z,73.71
2019-05-05T00:08:06.361Z,73.71
2019-05-05T00:10:56.998Z,73.02
2019-05-05T00:13:28.445Z,73.34
2019-05-05T00:16:04.509Z,74.97
2019-05-05T00:18:34.627Z,73.65
2019-05-05T00:21:04.606Z,74.45
2019-05-05T00:23:34.652Z,73.78
2019-05-05T00:26:04.507Z,74.30
2019-05-05T00:28:35.344Z,73.95
2019-05-05T00:31:04.645Z,74.73
2019-05-05T00:33:34.396Z,75.91
2019-05-05T00:36:07.450Z,73.21
2019-05-05T00:38:35.231Z,73.79
2019-05-05T00:41:05.423Z,73.43
2019-05-05T00:43:34.670Z,74.91
2019-05-05T00:46:05.150Z,74.51
2019-05-05T00:48:38.679Z,74.42
2019-05-05T00:51:08.566Z,75.38
2019-05-05T00:53:37.457Z,74.90
2019-05-05T00:56:06.349Z,74.87
2019-05-05T00:58:36.792Z,75.73
2019-05-05T01:01:16.010Z,75.98
2019-05-05T01:03:44.902Z,75.30
2019-05-05T01:06:18.603Z,75.67
2019-05-05T01:08:47.801Z,75.49
2019-05-05T01:11:17.489Z,74.56
2019-05-05T01:13:49.367Z,75.78
2019-05-05T01:16:18.475Z,76.06
2019-05-05T01:18:47.459Z,75.93
2019-05-05T01:21:17.989Z,76.15
2019-05-05T01:23:46.985Z,75.90
2019-05-05T01:26:15.881Z,75.09
2019-05-05T01:28:44.866Z,75.80
2019-05-05T01:31:15.331Z,74.57
2019-05-05T01:34:04.715Z,75.05
2019-05-05T01:36:34.564Z,75.25
2019-05-05T01:39:21.392Z,75.49
2019-05-05T01:41:51.852Z,75.20
2019-05-05T01:44:20.710Z,75.37
2019-05-05T01:46:49.601Z,76.35
2019-05-05T01:49:18.494Z,76.35
2019-05-05T01:51:47.487Z,75.58
2019-05-05T01:54:16.378Z,74.44
2019-05-05T01:56:45.495Z,75.10
2019-05-05T01:59:14.584Z,76.01
2019-05-05T02:01:44.520Z,74.87
2019-05-05T02:04:14.475Z,74.18
2019-05-05T02:06:44.337Z,74.13
2019-05-05T02:09:15.929Z,74.61
2019-05-05T02:11:45.357Z,74.36
2019-05-05T02:14:15.608Z,74.44
2019-05-05T02:16:45.178Z,74.74
2019-05-05T02:19:14.425Z,73.52
2019-05-05T02:21:45.285Z,74.26
2019-05-05T02:24:14.567Z,74.63
2019-05-05T02:26:45.577Z,73.35
2019-05-05T02:29:31.475Z,75.35
2019-05-05T02:32:16.952Z,75.99
2019-05-05T02:34:56.326Z,75.00
2019-05-05T02:37:25.615Z,74.66
2019-05-05T02:40:02.198Z,75.43
2019-05-05T02:42:27.472Z,74.67
2019-05-05T02:44:59.256Z,73.94
2019-05-05T02:47:35.387Z,73.67
2019-05-05T02:50:06.851Z,74.64
2019-05-05T02:52:37.873Z,74.81
2019-05-05T02:55:07.583Z,74.35
2019-05-05T02:57:36.853Z,73.83
2019-05-05T03:00:08.350Z,76.02
2019-05-05T03:02:37.540Z,75.01
2019-05-05T03:05:07.353Z,73.71
2019-05-05T03:07:38.043Z,74.50
2019-05-05T03:10:08.500Z,74.57
2019-05-05T03:12:40.197Z,74.10
2019-05-05T03:15:11.006Z,72.77
2019-05-05T03:17:40.004Z,73.03
2019-05-05T03:20:09.783Z,72.33
2019-05-05T03:22:38.891Z,73.17
2019-05-05T03:25:07.906Z,72.29
2019-05-05T03:27:37.190Z,72.96
2019-05-05T03:30:09.290Z,73.46
2019-05-05T03:32:38.162Z,72.45
2019-05-05T03:35:07.462Z,72.56
2019-05-05T03:37:36.968Z,73.84
2019-05-05T03:40:08.622Z,73.77
2019-05-05T03:42:44.298Z,73.29
2019-05-05T03:45:15.005Z,73.76
2019-05-05T03:47:44.196Z,74.39
2019-05-05T03:50:14.411Z,75.98
2019-05-05T03:52:43.909Z,74.21
2019-05-05T03:55:13.867Z,74.34
2019-05-05T03:57:44.536Z,74.34
2019-05-05T04:00:15.883Z,74.84
2019-05-05T04:02:49.532Z,73.64
2019-05-05T04:05:19.964Z,74.25
2019-05-05T04:07:48.954Z,73.90
2019-05-05T04:10:17.946Z,73.40
2019-05-05T04:12:47.634Z,72.49
2019-05-05T04:15:16.854Z,72.36
2019-05-05T04:17:50.035Z,73.25
2019-05-05T04:20:20.475Z,72.29
2019-05-05T04:22:49.364Z,72.19
2019-05-05T04:25:18.257Z,71.41
2019-05-05T04:27:47.146Z,72.11
2019-05-05T04:30:16.039Z,71.90
2019-05-05T04:32:44.928Z,72.81
2019-05-05T04:35:14.248Z,72.39
2019-05-05T04:37:43.853Z,71.89
2019-05-05T04:40:14.828Z,72.81
2019-05-05T04:42:44.262Z,72.36
2019-05-05T04:45:14.830Z,73.86
2019-05-05T04:47:48.720Z,72.62
2019-05-05T04:50:35.840Z,73.16
2019-05-05T04:53:09.168Z,73.86
2019-05-05T04:55:39.664Z,73.84
2019-05-05T04:58:08.964Z,73.41
2019-05-05T05:00:37.857Z,72.92
2019-05-05T05:03:14.261Z,72.93
2019-05-05T05:05:56.837Z,72.41
2019-05-05T05:08:25.728Z,70.62
2019-05-05T05:10:54.617Z,72.01
2019-05-05T05:13:24.464Z,71.23
2019-05-05T05:15:54.072Z,71.97
2019-05-05T05:18:24.003Z,72.06
2019-05-05T05:20:54.877Z,71.99
2019-05-05T05:23:24.645Z,72.52
2019-05-05T05:25:54.391Z,74.40
2019-05-05T05:28:23.761Z,73.87
2019-05-05T05:30:54.582Z,73.15
2019-05-05T05:33:23.882Z,73.24
2019-05-05T05:35:54.653Z,71.68
2019-05-05T05:38:24.502Z,72.45
2019-05-05T05:40:58.106Z,71.24
2019-05-05T05:43:34.779Z,72.09
2019-05-05T05:46:10.929Z,72.21
2019-05-05T05:48:44.644Z,71.89
2019-05-05T05:51:15.072Z,72.42
2019-05-05T05:53:44.030Z,72.77
2019-05-05T05:56:13.516Z,71.81
2019-05-05T05:58:44.182Z,72.21
2019-05-05T06:01:14.669Z,70.83
2019-05-05T06:03:44.382Z,71.84
2019-05-05T06:06:13.843Z,72.35
2019-05-05T06:08:43.980Z,70.83
2019-05-05T06:11:13.645Z,71.52
2019-05-05T06:13:44.439Z,71.65
2019-05-05T06:16:14.595Z,71.65
2019-05-05T06:18:43.802Z,71.31
2019-05-05T06:21:13.752Z,72.74
2019-05-05T06:23:43.696Z,70.96
2019-05-05T06:26:15.215Z,72.29
2019-05-05T06:28:44.778Z,71.52
2019-05-05T06:31:14.562Z,71.07
2019-05-05T06:33:43.865Z,72.18
2019-05-05T06:36:14.163Z,71.43
2019-05-05T06:38:43.822Z,72.22
2019-05-05T06:41:26.788Z,70.44
2019-05-05T06:44:03.686Z,69.19
2019-05-05T06:46:50.888Z,69.94
2019-05-05T06:49:19.781Z,69.74
2019-05-05T06:51:49.898Z,71.24
2019-05-05T06:54:18.700Z,69.60
2019-05-05T06:56:47.580Z,71.02
2019-05-05T06:59:16.471Z,71.02
2019-05-05T07:01:45.361Z,69.87
2019-05-05T07:04:14.561Z,70.41
2019-05-05T07:06:53.530Z,70.32
2019-05-05T07:09:15.622Z,70.06
2019-05-05T07:11:44.513Z,70.60
2019-05-05T07:14:14.308Z,69.58
2019-05-05T07:16:43.877Z,68.33
2019-05-05T07:19:14.683Z,70.09
2019-05-05T07:21:45.227Z,69.12
2019-05-05T07:24:14.667Z,68.89
2019-05-05T07:26:44.667Z,70.55
2019-05-05T07:29:16.380Z,70.75
2019-05-05T07:31:44.456Z,69.94
2019-05-05T07:34:14.746Z,69.71
2019-05-05T07:36:47.984Z,70.40
2019-05-05T07:39:16.956Z,69.83
2019-05-05T07:41:45.953Z,69.04
2019-05-05T07:44:25.796Z,68.50
2019-05-05T07:46:45.372Z,69.67
2019-05-05T07:49:14.262Z,67.79
2019-05-05T07:51:44.731Z,68.72
2019-05-05T07:54:14.517Z,68.38
2019-05-05T07:56:44.350Z,69.08
2019-05-05T07:59:14.565Z,69.64
2019-05-05T08:01:46.585Z,69.01
2019-05-05T08:04:14.272Z,69.32
2019-05-05T08:06:44.552Z,67.43
2019-05-05T08:09:14.631Z,67.37
2019-05-05T08:11:43.727Z,67.65
2019-05-05T08:14:14.628Z,68.67
2019-05-05T08:16:44.762Z,69.25
2019-05-05T08:19:18.159Z,67.31
2019-05-05T08:21:47.051Z,67.16
2019-05-05T08:24:17.481Z,67.58
2019-05-05T08:27:04.736Z,68.13
2019-05-05T08:29:35.249Z,69.85
2019-05-05T08:32:17.949Z,68.98
2019-05-05T08:34:57.365Z,69.27
2019-05-05T08:37:18.370Z,69.52
2019-05-05T08:39:47.245Z,68.45
2019-05-05T08:42:16.069Z,68.33
2019-05-05T08:44:44.962Z,67.80
2019-05-05T08:47:14.048Z,68.00
2019-05-05T08:49:44.276Z,68.03
2019-05-05T08:52:14.487Z,66.80
2019-05-05T08:54:44.680Z,66.85
2019-05-05T08:57:14.708Z,66.29
2019-05-05T08:59:45.277Z,64.60
2019-05-05T09:02:14.960Z,65.05
2019-05-05T09:04:44.715Z,65.94
2019-05-05T09:07:14.309Z,65.01
2019-05-05T09:09:44.195Z,64.52
2019-05-05T09:12:14.053Z,63.16
2019-05-05T09:14:44.937Z,63.61
2019-05-05T09:17:13.818Z,63.16
2019-05-05T09:19:44.764Z,64.60
2019-05-05T09:22:13.975Z,64.86
2019-05-05T09:24:44.644Z,62.97
2019-05-05T09:27:15.054Z,62.65
2019-05-05T09:29:44.355Z,63.78
2019-05-05T09:32:13.941Z,64.28
2019-05-05T09:34:43.603Z,63.85
2019-05-05T09:37:14.403Z,63.85
2019-05-05T09:39:43.803Z,64.08
2019-05-05T09:42:14.550Z,62.25
2019-05-05T09:44:43.906Z,63.17
2019-05-05T09:47:13.666Z,60.26
2019-05-05T09:49:44.604Z,61.49
2019-05-05T09:52:14.101Z,62.48
2019-05-05T09:54:44.745Z,65.15
2019-05-05T09:57:14.507Z,63.02
2019-05-05T09:59:44.114Z,61.33
2019-05-05T10:02:13.565Z,62.85
2019-05-05T10:04:44.153Z,63.25
2019-05-05T10:07:13.850Z,62.49
2019-05-05T10:09:43.773Z,61.62
2019-05-05T10:12:14.451Z,61.45
2019-05-05T10:14:44.929Z,61.39
2019-05-05T10:17:14.223Z,60.66
2019-05-05T10:19:43.983Z,60.11
2019-05-05T10:22:14.828Z,58.89
2019-05-05T10:24:45.468Z,58.60
2019-05-05T10:27:14.353Z,59.35
2019-05-05T10:29:44.199Z,59.02
2019-05-05T10:32:13.830Z,60.73
2019-05-05T10:34:43.979Z,58.59
2019-05-05T10:37:14.631Z,59.45
2019-05-05T10:39:47.927Z,57.97
2019-05-05T10:42:18.422Z,58.51
2019-05-05T10:44:47.449Z,58.90
2019-05-05T10:47:16.345Z,57.15
2019-05-05T10:49:45.232Z,57.05
2019-05-05T10:52:14.398Z,59.54
2019-05-05T10:54:44.826Z,59.19
2019-05-05T10:57:15.539Z,58.35
2019-05-05T10:59:44.583Z,56.60
2019-05-05T11:02:14.159Z,57.77
2019-05-05T11:04:44.194Z,57.96
2019-05-05T11:07:14.951Z,58.46
2019-05-05T11:09:44.456Z,55.94
2019-05-05T11:12:14.299Z,56.83
2019-05-05T11:14:44.269Z,57.36
2019-05-05T11:17:14.947Z,58.04
2019-05-05T11:19:45.132Z,55.67
2019-05-05T11:22:14.721Z,55.39
2019-05-05T11:24:55.257Z,54.89
2019-05-05T11:27:14.367Z,55.65
2019-05-05T11:30:00.571Z,55.48
2019-05-05T11:32:47.475Z,53.47
2019-05-05T11:35:17.187Z,55.17
2019-05-05T11:37:46.180Z,55.05
2019-05-05T11:40:15.071Z,55.11
2019-05-05T11:42:43.961Z,53.87
2019-05-05T11:45:14.876Z,56.32
2019-05-05T11:47:45.226Z,57.88
2019-05-05T11:50:15.655Z,56.76
2019-05-05T11:52:44.546Z,59.37
2019-05-05T11:55:14.999Z,58.65
2019-05-05T11:57:44.065Z,58.21
2019-05-05T12:00:14.287Z,57.86
2019-05-05T12:02:43.922Z,57.28
2019-05-05T12:05:14.086Z,57.63
2019-05-05T12:07:43.701Z,56.84
2019-05-05T12:10:30.125Z,57.18
2019-05-05T12:13:00.657Z,58.40
2019-05-05T12:15:29.553Z,57.40
2019-05-05T12:17:58.439Z,57.56
2019-05-05T12:20:37.854Z,57.78
2019-05-05T12:23:10.367Z,57.00
2019-05-05T12:25:43.745Z,56.83
2019-05-05T12:28:19.875Z,55.07
2019-05-05T12:30:48.701Z,54.46
2019-05-05T12:33:17.589Z,55.66
2019-05-05T12:35:46.483Z,53.67
2019-05-05T12:38:15.371Z,53.45
2019-05-05T12:40:44.317Z,53.98
2019-05-05T12:43:14.185Z,53.37
2019-05-05T12:46:00.911Z,54.47
2019-05-05T12:48:34.505Z,53.33
2019-05-05T12:51:04.169Z,55.38
2019-05-05T12:53:33.348Z,52.60
2019-05-05T12:56:04.099Z,51.70
2019-05-05T12:58:33.583Z,51.72
2019-05-05T13:01:16.331Z,52.96
2019-05-05T13:03:45.141Z,51.46
2019-05-05T13:06:14.613Z,53.22
2019-05-05T13:08:44.500Z,49.33
2019-05-05T13:11:14.080Z,52.47
2019-05-05T13:13:43.948Z,49.20
2019-05-05T13:16:13.753Z,50.87
2019-05-05T13:18:42.688Z,48.02
2019-05-05T13:21:13.933Z,48.71
2019-05-05T13:23:47.636Z,50.48
2019-05-05T13:26:18.166Z,50.10
2019-05-05T13:28:47.061Z,49.75
2019-05-05T13:31:15.950Z,46.42
2019-05-05T13:33:44.843Z,47.36
2019-05-05T13:36:13.945Z,48.82
2019-05-05T13:38:43.836Z,47.53
2019-05-05T13:41:12.844Z,46.57
2019-05-05T13:43:41.741Z,45.59
2019-05-05T13:46:17.300Z,45.31
2019-05-05T13:48:46.173Z,46.34
2019-05-05T13:51:24.159Z,48.07
2019-05-05T13:53:53.952Z,47.87
2019-05-05T13:56:24.456Z,44.46
2019-05-05T13:58:53.413Z,45.46
2019-05-05T14:01:23.786Z,44.92
2019-05-05T14:03:54.147Z,44.12
2019-05-05T14:06:24.233Z,44.20
2019-05-05T14:08:54.017Z,45.23
2019-05-05T14:11:24.684Z,45.24
2019-05-05T14:13:53.723Z,44.00
2019-05-05T14:16:22.613Z,43.82
2019-05-05T14:18:53.599Z,44.08
2019-05-05T14:21:22.034Z,43.44
2019-05-05T14:24:08.924Z,43.25
2019-05-05T14:26:37.839Z,45.91
2019-05-05T14:29:08.206Z,46.16
2019-05-05T14:31:41.255Z,43.84
2019-05-05T14:34:24.585Z,46.49
2019-05-05T14:37:11.196Z,45.80
2019-05-05T14:39:40.184Z,43.30
2019-05-05T14:42:09.457Z,46.14
2019-05-05T14:44:39.809Z,44.37
2019-05-05T14:47:09.620Z,44.52
2019-05-05T14:49:38.511Z,43.20
2019-05-05T14:52:07.500Z,41.50
2019-05-05T14:54:36.397Z,43.77
2019-05-05T14:57:05.393Z,44.36
2019-05-05T14:59:36.896Z,46.64
2019-05-05T15:02:05.118Z,42.74
2019-05-05T15:04:35.572Z,44.09
2019-05-05T15:07:17.953Z,44.33
2019-05-05T15:09:51.148Z,45.57
2019-05-05T15:12:24.441Z,46.59
2019-05-05T15:14:54.713Z,46.17
2019-05-05T15:17:24.661Z,44.75
2019-05-05T15:19:54.086Z,43.89
2019-05-05T15:22:24.716Z,43.93
2019-05-05T15:24:53.777Z,45.38
2019-05-05T15:27:24.353Z,48.62
2019-05-05T15:29:54.289Z,49.23
2019-05-05T15:32:24.062Z,48.13
2019-05-05T15:34:54.601Z,48.09
2019-05-05T15:37:23.908Z,49.22
2019-05-05T15:39:53.596Z,49.83
2019-05-05T15:42:22.601Z,48.33
2019-05-05T15:44:51.501Z,50.21
2019-05-05T15:47:20.384Z,47.59
2019-05-05T15:49:49.277Z,49.32
2019-05-05T15:52:20.168Z,51.00
2019-05-05T15:54:48.798Z,48.25
2019-05-05T15:57:18.246Z,49.02
2019-05-05T15:59:47.298Z,48.70
2019-05-05T16:02:16.292Z,47.62
2019-05-05T16:04:45.387Z,48.30
2019-05-05T16:07:14.278Z,46.98
2019-05-05T16:09:44.432Z,45.83
2019-05-05T16:12:14.396Z,44.66
2019-05-05T16:14:46.241Z,44.44
2019-05-05T16:17:24.219Z,45.88
2019-05-05T16:20:04.554Z,43.94
2019-05-05T16:22:37.897Z,45.63
2019-05-05T16:25:10.512Z,46.29
2019-05-05T16:27:40.410Z,48.68
2019-05-05T16:30:14.479Z,53.96
2019-05-05T16:32:43.438Z,56.07
2019-05-05T16:35:14.867Z,57.06
2019-05-05T16:37:44.295Z,55.44
2019-05-05T16:40:15.013Z,53.50
2019-05-05T16:42:43.919Z,54.41
2019-05-05T16:45:16.466Z,52.85
2019-05-05T16:47:47.230Z,51.33
2019-05-05T16:50:16.244Z,54.14
2019-05-05T16:52:46.653Z,52.97
2019-05-05T16:55:17.211Z,52.57
2019-05-05T16:57:46.068Z,53.12
2019-05-05T17:00:15.554Z,53.52
2019-05-05T17:02:44.550Z,56.02
2019-05-05T17:05:15.482Z,60.82
2019-05-05T17:07:44.504Z,62.64
2019-05-05T17:10:13.964Z,61.47
2019-05-05T17:12:44.316Z,61.21
2019-05-05T17:15:35.230Z,60.02
2019-05-05T17:18:04.675Z,59.98
2019-05-05T17:20:38.343Z,59.21
2019-05-05T17:23:11.685Z,58.82
2019-05-05T17:25:41.656Z,58.63
2019-05-05T17:28:13.502Z,57.37
2019-05-05T17:30:43.648Z,59.68
2019-05-05T17:33:14.371Z,64.44
2019-05-05T17:35:43.569Z,67.08
2019-05-05T17:38:14.198Z,68.46
2019-05-05T17:40:44.628Z,67.94
2019-05-05T17:43:30.003Z,66.61
2019-05-05T17:46:00.431Z,65.43
2019-05-05T17:48:30.858Z,64.78
2019-05-05T17:51:04.456Z,63.25
2019-05-05T17:53:41.238Z,63.24
2019-05-05T17:56:14.286Z,63.82
2019-05-05T17:58:44.502Z,63.78
2019-05-05T18:01:13.541Z,61.12
2019-05-05T18:03:43.656Z,62.55
2019-05-05T18:06:17.365Z,64.27
2019-05-05T18:08:54.081Z,64.41
2019-05-05T18:11:35.166Z,63.57
2019-05-05T18:14:05.942Z,68.20
2019-05-05T18:16:34.844Z,60.98
2019-05-05T18:19:04.464Z,62.15
2019-05-05T18:21:34.833Z,60.21
2019-05-05T18:24:04.024Z,59.46
2019-05-05T18:26:34.071Z,61.07
2019-05-05T18:29:03.771Z,60.80
2019-05-05T18:31:33.628Z,63.07
2019-05-05T18:34:04.361Z,61.22
2019-05-05T18:36:33.243Z,61.95
2019-05-05T18:39:02.136Z,60.99
2019-05-05T18:41:34.325Z,61.22
2019-05-05T18:44:07.414Z,61.12
2019-05-05T18:46:36.386Z,62.38
2019-05-05T18:49:05.379Z,62.68
2019-05-05T18:51:34.758Z,62.86
2019-05-05T18:54:04.229Z,63.03
2019-05-05T18:56:34.744Z,63.20
2019-05-05T18:59:06.577Z,64.68
2019-05-05T19:01:42.327Z,62.34
2019-05-05T19:04:13.672Z,63.38
2019-05-05T19:06:56.701Z,66.86
2019-05-05T19:09:25.591Z,68.49
2019-05-05T19:11:54.694Z,69.48
2019-05-05T19:14:24.346Z,69.49
2019-05-05T19:16:55.537Z,69.31
2019-05-05T19:19:27.343Z,68.39
2019-05-05T19:22:04.343Z,70.16
2019-05-05T19:24:35.325Z,69.83
2019-05-05T19:27:03.911Z,68.84
2019-05-05T19:29:32.800Z,68.18
2019-05-05T19:32:01.689Z,68.35
2019-05-05T19:34:30.579Z,67.11
2019-05-05T19:36:59.473Z,67.52
2019-05-05T19:39:28.667Z,68.24
2019-05-05T19:41:57.677Z,67.82
2019-05-05T19:44:26.553Z,69.87
2019-05-05T19:46:59.856Z,71.76
2019-05-05T19:49:28.745Z,69.23
2019-05-05T19:51:57.632Z,71.22
2019-05-05T19:54:26.525Z,70.89
2019-05-05T19:56:55.416Z,70.22
2019-05-05T19:59:24.329Z,71.23
2019-05-05T20:01:54.011Z,71.64
2019-05-05T20:04:24.106Z,70.86
2019-05-05T20:06:54.773Z,70.84
2019-05-05T20:09:25.296Z,72.06
2019-05-05T20:11:54.616Z,70.67
2019-05-05T20:14:24.803Z,70.13
2019-05-05T20:17:07.491Z,70.51
2019-05-05T20:19:38.023Z,69.09
2019-05-05T20:22:07.801Z,71.34
2019-05-05T20:24:36.666Z,70.69
2019-05-05T20:27:05.658Z,69.40
2019-05-05T20:29:37.377Z,70.57
2019-05-05T20:32:05.193Z,71.59
2019-05-05T20:34:35.716Z,71.83
2019-05-05T20:37:14.180Z,72.13
2019-05-05T20:39:44.016Z,71.61
2019-05-05T20:42:14.931Z,71.43
2019-05-05T20:44:43.990Z,72.52
2019-05-05T20:47:12.973Z,70.91
2019-05-05T20:49:41.858Z,72.93
2019-05-05T20:52:14.022Z,72.91
2019-05-05T20:54:44.100Z,72.70
2019-05-05T20:57:12.832Z,71.91
2019-05-05T20:59:41.725Z,71.79
2019-05-05T21:02:11.126Z,71.83
2019-05-05T21:04:40.019Z,70.01
2019-05-05T21:07:09.037Z,69.90
2019-05-05T21:09:37.910Z,69.80
2019-05-05T21:12:06.844Z,71.52
2019-05-05T21:14:38.151Z,72.26
2019-05-05T21:17:06.625Z,72.80
2019-05-05T21:19:35.415Z,71.13
2019-05-05T21:22:22.226Z,70.66
2019-05-05T21:24:54.112Z,69.38
2019-05-05T21:27:24.396Z,70.60
2019-05-05T21:29:54.379Z,73.72
2019-05-05T21:32:25.404Z,71.83
2019-05-05T21:34:54.056Z,73.22
2019-05-05T21:37:24.938Z,72.79
2019-05-05T21:39:55.209Z,72.96
2019-05-05T21:42:24.188Z,72.95
2019-05-05T21:44:53.908Z,71.38
2019-05-05T21:47:23.992Z,72.22
2019-05-05T21:49:54.227Z,72.24
2019-05-05T21:52:28.073Z,71.53
2019-05-05T21:55:01.157Z,72.36
2019-05-05T21:57:46.841Z,72.38
2019-05-05T22:00:34.684Z,70.69
2019-05-05T22:03:04.473Z,70.71
2019-05-05T22:05:33.591Z,68.96
2019-05-05T22:08:04.605Z,69.42
2019-05-05T22:10:34.315Z,68.06
2019-05-05T22:13:04.868Z,70.36
2019-05-05T22:15:35.695Z,70.81
2019-05-05T22:18:04.578Z,69.75
2019-05-05T22:20:44.315Z,68.79
2019-05-05T22:23:14.532Z,69.49
2019-05-05T22:25:43.823Z,68.23
2019-05-05T22:28:12.762Z,67.81
2019-05-05T22:30:43.718Z,68.51
2019-05-05T22:33:13.732Z,69.36
2019-05-05T22:35:44.251Z,68.89
2019-05-05T22:38:13.746Z,68.11
2019-05-05T22:40:44.055Z,67.74
2019-05-05T22:43:14.507Z,69.23
2019-05-05T22:45:44.996Z,67.75
2019-05-05T22:48:14.430Z,68.33
2019-05-05T22:50:43.772Z,68.16
2019-05-05T22:53:14.047Z,68.04
2019-05-05T22:55:43.960Z,68.38
2019-05-05T22:58:14.338Z,69.31
2019-05-05T23:00:43.868Z,68.91
2019-05-05T23:03:17.611Z,68.17
2019-05-05T23:05:51.009Z,68.08
2019-05-05T23:08:19.899Z,67.56
2019-05-05T23:10:48.788Z,68.29
2019-05-05T23:13:21.062Z,69.56
2019-05-05T23:15:57.631Z,68.33
2019-05-05T23:18:28.172Z,67.19
2019-05-05T23:21:15.959Z,68.69
2019-05-05T23:24:03.759Z,67.91
2019-05-05T23:26:37.534Z,68.54
2019-05-05T23:29:06.527Z,70.22
2019-05-05T23:31:35.523Z,67.92
2019-05-05T23:34:04.516Z,68.50
2019-05-05T23:36:33.960Z,68.85
2019-05-05T23:39:04.940Z,71.32
2019-05-05T23:41:34.860Z,71.00
2019-05-05T23:44:04.891Z,70.81
2019-05-05T23:46:34.814Z,71.69
2019-05-05T23:49:04.392Z,71.83
2019-05-05T23:51:34.718Z,72.83
2019-05-05T23:54:04.294Z,72.13
2019-05-05T23:56:34.983Z,72.24
2019-05-05T23:59:04.426Z,69.56
